sensor_id;sensor_type;location;lat;lon;timestamp;P1;durP1;ratioP1;P2;durP2;ratioP2
31978;SDS011;18502;43.574;1.276;2022-10-31T00:00:58;25.85;;;9.68;;
31978;SDS011;18502;43.574;1.276;2022-10-31T00:03:25;25.30;;;8.48;;
31978;SDS011;18502;43.574;1.276;2022-10-31T00:05:51;22.80;;;8.60;;
31978;SDS011;18502;43.574;1.276;2022-10-31T00:08:18;26.23;;;9.38;;
31978;SDS011;18502;43.574;1.276;2022-10-31T00:10:45;22.58;;;9.23;;
31978;SDS011;18502;43.574;1.276;2022-10-31T00:13:11;24.67;;;9.48;;
31978;SDS011;18502;43.574;1.276;2022-10-31T00:15:39;27.60;;;9.80;;
31978;SDS011;18502;43.574;1.276;2022-10-31T00:18:06;25.35;;;8.95;;
31978;SDS011;18502;43.574;1.276;2022-10-31T00:20:33;27.33;;;8.88;;
31978;SDS011;18502;43.574;1.276;2022-10-31T00:22:59;26.90;;;9.95;;
31978;SDS011;18502;43.574;1.276;2022-10-31T00:25:26;29.88;;;9.68;;
31978;SDS011;18502;43.574;1.276;2022-10-31T00:27:53;30.98;;;10.15;;
31978;SDS011;18502;43.574;1.276;2022-10-31T00:30:19;25.80;;;9.68;;
31978;SDS011;18502;43.574;1.276;2022-10-31T00:32:45;22.40;;;9.40;;
31978;SDS011;18502;43.574;1.276;2022-10-31T00:35:10;32.78;;;10.70;;
31978;SDS011;18502;43.574;1.276;2022-10-31T00:37:36;26.38;;;9.98;;
31978;SDS011;18502;43.574;1.276;2022-10-31T00:40:02;25.02;;;9.48;;
31978;SDS011;18502;43.574;1.276;2022-10-31T00:42:28;20.15;;;9.70;;
31978;SDS011;18502;43.574;1.276;2022-10-31T00:44:53;34.35;;;10.07;;
31978;SDS011;18502;43.574;1.276;2022-10-31T00:47:19;27.42;;;10.18;;
31978;SDS011;18502;43.574;1.276;2022-10-31T00:49:44;30.13;;;10.77;;
31978;SDS011;18502;43.574;1.276;2022-10-31T00:52:10;25.67;;;9.95;;
31978;SDS011;18502;43.574;1.276;2022-10-31T00:54:36;28.33;;;10.10;;
31978;SDS011;18502;43.574;1.276;2022-10-31T00:57:02;27.27;;;10.45;;
31978;SDS011;18502;43.574;1.276;2022-10-31T00:59:28;26.52;;;10.65;;
31978;SDS011;18502;43.574;1.276;2022-10-31T01:01:53;27.67;;;9.95;;
31978;SDS011;18502;43.574;1.276;2022-10-31T01:04:19;28.48;;;10.60;;
31978;SDS011;18502;43.574;1.276;2022-10-31T01:06:45;36.60;;;10.48;;
31978;SDS011;18502;43.574;1.276;2022-10-31T01:09:10;26.20;;;10.65;;
31978;SDS011;18502;43.574;1.276;2022-10-31T01:11:36;33.78;;;11.30;;
31978;SDS011;18502;43.574;1.276;2022-10-31T01:14:02;24.35;;;10.65;;
31978;SDS011;18502;43.574;1.276;2022-10-31T01:16:27;23.92;;;10.70;;
31978;SDS011;18502;43.574;1.276;2022-10-31T01:18:56;37.30;;;12.63;;
31978;SDS011;18502;43.574;1.276;2022-10-31T01:21:22;30.17;;;11.75;;
31978;SDS011;18502;43.574;1.276;2022-10-31T01:23:50;33.28;;;11.98;;
31978;SDS011;18502;43.574;1.276;2022-10-31T01:26:20;27.05;;;12.38;;
31978;SDS011;18502;43.574;1.276;2022-10-31T01:28:48;48.60;;;13.13;;
31978;SDS011;18502;43.574;1.276;2022-10-31T01:31:15;26.95;;;11.95;;
31978;SDS011;18502;43.574;1.276;2022-10-31T01:33:42;31.63;;;11.60;;
31978;SDS011;18502;43.574;1.276;2022-10-31T01:38:46;25.15;;;13.00;;
31978;SDS011;18502;43.574;1.276;2022-10-31T01:41:14;25.00;;;12.43;;
31978;SDS011;18502;43.574;1.276;2022-10-31T01:44:03;28.08;;;11.65;;
31978;SDS011;18502;43.574;1.276;2022-10-31T01:49:11;32.17;;;11.65;;
31978;SDS011;18502;43.574;1.276;2022-10-31T01:52:00;36.83;;;12.45;;
31978;SDS011;18502;43.574;1.276;2022-10-31T01:54:47;35.00;;;11.60;;
31978;SDS011;18502;43.574;1.276;2022-10-31T01:57:15;33.43;;;10.90;;
31978;SDS011;18502;43.574;1.276;2022-10-31T01:59:46;26.00;;;11.48;;
31978;SDS011;18502;43.574;1.276;2022-10-31T02:02:15;28.57;;;11.50;;
31978;SDS011;18502;43.574;1.276;2022-10-31T02:04:42;28.52;;;11.75;;
31978;SDS011;18502;43.574;1.276;2022-10-31T02:07:20;24.95;;;11.25;;
31978;SDS011;18502;43.574;1.276;2022-10-31T02:09:55;36.15;;;11.70;;
31978;SDS011;18502;43.574;1.276;2022-10-31T02:12:21;27.88;;;11.60;;
31978;SDS011;18502;43.574;1.276;2022-10-31T02:14:47;27.55;;;11.05;;
31978;SDS011;18502;43.574;1.276;2022-10-31T02:17:13;30.90;;;11.40;;
31978;SDS011;18502;43.574;1.276;2022-10-31T02:28:31;23.13;;;10.55;;
31978;SDS011;18502;43.574;1.276;2022-10-31T02:52:18;21.23;;;10.05;;
31978;SDS011;18502;43.574;1.276;2022-10-31T02:54:51;24.52;;;11.38;;
31978;SDS011;18502;43.574;1.276;2022-10-31T02:57:20;26.85;;;9.48;;
31978;SDS011;18502;43.574;1.276;2022-10-31T02:59:58;23.10;;;10.48;;
31978;SDS011;18502;43.574;1.276;2022-10-31T03:08:27;24.88;;;9.90;;
31978;SDS011;18502;43.574;1.276;2022-10-31T03:11:05;25.52;;;9.50;;
31978;SDS011;18502;43.574;1.276;2022-10-31T03:18:33;23.60;;;10.25;;
31978;SDS011;18502;43.574;1.276;2022-10-31T03:21:05;29.05;;;10.05;;
31978;SDS011;18502;43.574;1.276;2022-10-31T03:24:06;23.45;;;10.00;;
31978;SDS011;18502;43.574;1.276;2022-10-31T03:26:35;25.90;;;9.93;;
31978;SDS011;18502;43.574;1.276;2022-10-31T03:29:06;26.30;;;10.15;;
31978;SDS011;18502;43.574;1.276;2022-10-31T03:31:39;28.85;;;10.48;;
31978;SDS011;18502;43.574;1.276;2022-10-31T03:34:24;21.58;;;9.35;;
31978;SDS011;18502;43.574;1.276;2022-10-31T03:36:52;27.88;;;10.10;;
31978;SDS011;18502;43.574;1.276;2022-10-31T03:39:20;25.90;;;9.70;;
31978;SDS011;18502;43.574;1.276;2022-10-31T03:41:54;27.05;;;10.55;;
31978;SDS011;18502;43.574;1.276;2022-10-31T03:44:32;22.83;;;9.73;;
31978;SDS011;18502;43.574;1.276;2022-10-31T03:46:59;20.20;;;9.90;;
31978;SDS011;18502;43.574;1.276;2022-10-31T03:49:27;24.95;;;9.98;;
31978;SDS011;18502;43.574;1.276;2022-10-31T03:54:43;23.95;;;9.43;;
31978;SDS011;18502;43.574;1.276;2022-10-31T03:57:16;23.65;;;9.40;;
31978;SDS011;18502;43.574;1.276;2022-10-31T04:00:03;26.70;;;9.73;;
31978;SDS011;18502;43.574;1.276;2022-10-31T04:02:36;25.40;;;9.40;;
31978;SDS011;18502;43.574;1.276;2022-10-31T04:05:05;23.10;;;9.25;;
31978;SDS011;18502;43.574;1.276;2022-10-31T04:07:34;24.40;;;9.88;;
31978;SDS011;18502;43.574;1.276;2022-10-31T04:10:07;23.23;;;10.23;;
31978;SDS011;18502;43.574;1.276;2022-10-31T04:12:36;22.27;;;9.73;;
31978;SDS011;18502;43.574;1.276;2022-10-31T04:15:04;18.63;;;9.88;;
31978;SDS011;18502;43.574;1.276;2022-10-31T04:17:33;29.25;;;10.38;;
31978;SDS011;18502;43.574;1.276;2022-10-31T04:20:03;21.70;;;10.15;;
31978;SDS011;18502;43.574;1.276;2022-10-31T04:22:29;23.02;;;9.30;;
31978;SDS011;18502;43.574;1.276;2022-10-31T04:24:54;20.83;;;8.95;;
31978;SDS011;18502;43.574;1.276;2022-10-31T04:27:20;21.02;;;10.50;;
31978;SDS011;18502;43.574;1.276;2022-10-31T04:29:46;22.90;;;9.55;;
31978;SDS011;18502;43.574;1.276;2022-10-31T04:32:11;25.17;;;9.50;;
31978;SDS011;18502;43.574;1.276;2022-10-31T04:34:37;22.55;;;9.50;;
31978;SDS011;18502;43.574;1.276;2022-10-31T04:37:03;22.88;;;9.80;;
31978;SDS011;18502;43.574;1.276;2022-10-31T04:39:28;27.33;;;10.10;;
31978;SDS011;18502;43.574;1.276;2022-10-31T04:41:54;19.40;;;9.98;;
31978;SDS011;18502;43.574;1.276;2022-10-31T04:44:20;20.30;;;8.88;;
31978;SDS011;18502;43.574;1.276;2022-10-31T04:46:45;19.92;;;9.60;;
31978;SDS011;18502;43.574;1.276;2022-10-31T04:49:11;23.73;;;10.00;;
31978;SDS011;18502;43.574;1.276;2022-10-31T04:51:37;28.75;;;10.43;;
31978;SDS011;18502;43.574;1.276;2022-10-31T04:54:03;31.05;;;10.27;;
31978;SDS011;18502;43.574;1.276;2022-10-31T04:56:28;29.13;;;10.52;;
31978;SDS011;18502;43.574;1.276;2022-10-31T04:58:54;18.95;;;9.48;;
31978;SDS011;18502;43.574;1.276;2022-10-31T05:01:20;24.70;;;11.38;;
31978;SDS011;18502;43.574;1.276;2022-10-31T05:03:46;28.48;;;10.35;;
31978;SDS011;18502;43.574;1.276;2022-10-31T05:06:11;28.65;;;10.45;;
31978;SDS011;18502;43.574;1.276;2022-10-31T05:08:37;23.73;;;10.63;;
31978;SDS011;18502;43.574;1.276;2022-10-31T05:11:03;25.08;;;9.77;;
31978;SDS011;18502;43.574;1.276;2022-10-31T05:13:29;32.03;;;11.07;;
31978;SDS011;18502;43.574;1.276;2022-10-31T05:15:55;24.67;;;11.43;;
31978;SDS011;18502;43.574;1.276;2022-10-31T05:18:21;23.52;;;9.57;;
31978;SDS011;18502;43.574;1.276;2022-10-31T05:20:46;22.38;;;10.23;;
31978;SDS011;18502;43.574;1.276;2022-10-31T05:23:12;34.17;;;10.27;;
31978;SDS011;18502;43.574;1.276;2022-10-31T05:25:39;26.05;;;10.38;;
31978;SDS011;18502;43.574;1.276;2022-10-31T05:28:05;20.75;;;9.70;;
31978;SDS011;18502;43.574;1.276;2022-10-31T05:30:32;25.75;;;10.45;;
31978;SDS011;18502;43.574;1.276;2022-10-31T05:32:58;23.92;;;9.43;;
31978;SDS011;18502;43.574;1.276;2022-10-31T05:35:26;26.15;;;10.43;;
31978;SDS011;18502;43.574;1.276;2022-10-31T05:37:53;39.38;;;11.82;;
31978;SDS011;18502;43.574;1.276;2022-10-31T05:40:19;28.23;;;10.35;;
31978;SDS011;18502;43.574;1.276;2022-10-31T05:42:46;22.75;;;10.10;;
31978;SDS011;18502;43.574;1.276;2022-10-31T05:45:13;27.70;;;10.48;;
31978;SDS011;18502;43.574;1.276;2022-10-31T05:47:42;23.17;;;9.60;;
31978;SDS011;18502;43.574;1.276;2022-10-31T05:50:08;27.10;;;10.65;;
31978;SDS011;18502;43.574;1.276;2022-10-31T05:52:35;30.70;;;10.00;;
31978;SDS011;18502;43.574;1.276;2022-10-31T05:55:01;28.13;;;10.18;;
31978;SDS011;18502;43.574;1.276;2022-10-31T05:57:27;17.23;;;9.25;;
31978;SDS011;18502;43.574;1.276;2022-10-31T05:59:53;22.90;;;9.13;;
31978;SDS011;18502;43.574;1.276;2022-10-31T06:02:19;23.60;;;10.27;;
31978;SDS011;18502;43.574;1.276;2022-10-31T06:04:45;16.02;;;9.27;;
31978;SDS011;18502;43.574;1.276;2022-10-31T06:07:11;24.05;;;9.52;;
31978;SDS011;18502;43.574;1.276;2022-10-31T06:09:36;24.05;;;10.23;;
31978;SDS011;18502;43.574;1.276;2022-10-31T06:12:02;23.45;;;9.65;;
31978;SDS011;18502;43.574;1.276;2022-10-31T06:14:28;21.48;;;9.93;;
31978;SDS011;18502;43.574;1.276;2022-10-31T06:16:54;28.77;;;11.52;;
31978;SDS011;18502;43.574;1.276;2022-10-31T06:19:20;18.15;;;10.07;;
31978;SDS011;18502;43.574;1.276;2022-10-31T06:21:46;29.48;;;10.98;;
31978;SDS011;18502;43.574;1.276;2022-10-31T06:24:12;22.23;;;10.45;;
31978;SDS011;18502;43.574;1.276;2022-10-31T06:26:37;27.20;;;11.77;;
31978;SDS011;18502;43.574;1.276;2022-10-31T06:29:03;29.27;;;12.27;;
31978;SDS011;18502;43.574;1.276;2022-10-31T06:31:28;26.23;;;11.38;;
31978;SDS011;18502;43.574;1.276;2022-10-31T06:33:54;21.52;;;11.00;;
31978;SDS011;18502;43.574;1.276;2022-10-31T06:36:20;23.65;;;11.05;;
31978;SDS011;18502;43.574;1.276;2022-10-31T06:38:45;23.58;;;11.15;;
31978;SDS011;18502;43.574;1.276;2022-10-31T06:41:11;22.25;;;11.95;;
31978;SDS011;18502;43.574;1.276;2022-10-31T06:43:37;21.50;;;11.48;;
31978;SDS011;18502;43.574;1.276;2022-10-31T06:46:03;27.27;;;9.95;;
31978;SDS011;18502;43.574;1.276;2022-10-31T06:48:30;21.88;;;11.13;;
31978;SDS011;18502;43.574;1.276;2022-10-31T06:50:59;34.05;;;11.38;;
31978;SDS011;18502;43.574;1.276;2022-10-31T06:53:26;26.38;;;11.95;;
31978;SDS011;18502;43.574;1.276;2022-10-31T06:55:55;24.75;;;11.85;;
31978;SDS011;18502;43.574;1.276;2022-10-31T06:58:21;21.55;;;11.82;;
31978;SDS011;18502;43.574;1.276;2022-10-31T07:00:47;27.90;;;11.25;;
31978;SDS011;18502;43.574;1.276;2022-10-31T07:03:13;20.55;;;10.30;;
31978;SDS011;18502;43.574;1.276;2022-10-31T07:05:40;24.33;;;11.40;;
31978;SDS011;18502;43.574;1.276;2022-10-31T07:08:07;24.52;;;10.50;;
31978;SDS011;18502;43.574;1.276;2022-10-31T07:10:35;21.13;;;9.85;;
31978;SDS011;18502;43.574;1.276;2022-10-31T07:13:03;23.55;;;11.35;;
31978;SDS011;18502;43.574;1.276;2022-10-31T07:15:35;20.87;;;10.33;;
31978;SDS011;18502;43.574;1.276;2022-10-31T07:18:03;23.95;;;11.70;;
31978;SDS011;18502;43.574;1.276;2022-10-31T07:20:30;20.88;;;9.88;;
31978;SDS011;18502;43.574;1.276;2022-10-31T07:22:56;18.52;;;9.32;;
31978;SDS011;18502;43.574;1.276;2022-10-31T07:25:22;29.95;;;11.25;;
31978;SDS011;18502;43.574;1.276;2022-10-31T07:27:49;22.67;;;11.20;;
31978;SDS011;18502;43.574;1.276;2022-10-31T07:30:15;20.50;;;9.60;;
31978;SDS011;18502;43.574;1.276;2022-10-31T07:32:43;22.60;;;10.13;;
31978;SDS011;18502;43.574;1.276;2022-10-31T07:35:11;22.88;;;10.60;;
31978;SDS011;18502;43.574;1.276;2022-10-31T07:37:39;17.52;;;10.48;;
31978;SDS011;18502;43.574;1.276;2022-10-31T07:40:05;20.42;;;10.63;;
31978;SDS011;18502;43.574;1.276;2022-10-31T07:42:39;21.15;;;10.50;;
31978;SDS011;18502;43.574;1.276;2022-10-31T07:45:09;25.58;;;11.65;;
31978;SDS011;18502;43.574;1.276;2022-10-31T07:47:39;18.60;;;10.13;;
31978;SDS011;18502;43.574;1.276;2022-10-31T07:50:11;20.30;;;11.10;;
31978;SDS011;18502;43.574;1.276;2022-10-31T07:52:38;23.88;;;10.18;;
31978;SDS011;18502;43.574;1.276;2022-10-31T07:55:04;20.98;;;11.10;;
31978;SDS011;18502;43.574;1.276;2022-10-31T07:57:31;27.58;;;10.25;;
31978;SDS011;18502;43.574;1.276;2022-10-31T07:59:57;29.67;;;10.88;;
31978;SDS011;18502;43.574;1.276;2022-10-31T08:02:23;18.65;;;9.13;;
31978;SDS011;18502;43.574;1.276;2022-10-31T08:04:49;18.25;;;9.40;;
31978;SDS011;18502;43.574;1.276;2022-10-31T08:07:15;19.63;;;9.45;;
31978;SDS011;18502;43.574;1.276;2022-10-31T08:09:41;24.05;;;9.05;;
31978;SDS011;18502;43.574;1.276;2022-10-31T08:12:07;19.55;;;8.65;;
31978;SDS011;18502;43.574;1.276;2022-10-31T08:14:33;18.52;;;8.80;;
31978;SDS011;18502;43.574;1.276;2022-10-31T08:16:58;17.63;;;7.88;;
31978;SDS011;18502;43.574;1.276;2022-10-31T08:19:24;20.75;;;9.10;;
31978;SDS011;18502;43.574;1.276;2022-10-31T08:21:50;19.17;;;8.93;;
31978;SDS011;18502;43.574;1.276;2022-10-31T08:24:16;25.25;;;9.82;;
31978;SDS011;18502;43.574;1.276;2022-10-31T08:26:42;21.17;;;9.15;;
31978;SDS011;18502;43.574;1.276;2022-10-31T08:29:08;22.73;;;10.10;;
31978;SDS011;18502;43.574;1.276;2022-10-31T08:31:34;24.98;;;10.23;;
31978;SDS011;18502;43.574;1.276;2022-10-31T08:34:00;21.98;;;9.00;;
31978;SDS011;18502;43.574;1.276;2022-10-31T08:36:26;25.85;;;9.43;;
31978;SDS011;18502;43.574;1.276;2022-10-31T08:38:52;23.70;;;9.35;;
31978;SDS011;18502;43.574;1.276;2022-10-31T08:41:18;26.20;;;9.10;;
31978;SDS011;18502;43.574;1.276;2022-10-31T08:43:44;24.25;;;9.02;;
31978;SDS011;18502;43.574;1.276;2022-10-31T08:46:10;20.20;;;10.55;;
31978;SDS011;18502;43.574;1.276;2022-10-31T08:48:36;19.00;;;10.00;;
31978;SDS011;18502;43.574;1.276;2022-10-31T08:51:01;22.63;;;9.50;;
31978;SDS011;18502;43.574;1.276;2022-10-31T08:53:27;26.50;;;9.52;;
31978;SDS011;18502;43.574;1.276;2022-10-31T08:55:54;28.35;;;8.98;;
31978;SDS011;18502;43.574;1.276;2022-10-31T08:58:21;20.13;;;9.18;;
31978;SDS011;18502;43.574;1.276;2022-10-31T09:00:52;22.63;;;9.05;;
31978;SDS011;18502;43.574;1.276;2022-10-31T09:03:19;16.75;;;9.30;;
31978;SDS011;18502;43.574;1.276;2022-10-31T09:05:48;23.48;;;8.05;;
31978;SDS011;18502;43.574;1.276;2022-10-31T09:08:15;27.13;;;8.65;;
31978;SDS011;18502;43.574;1.276;2022-10-31T09:10:41;18.92;;;7.03;;
31978;SDS011;18502;43.574;1.276;2022-10-31T09:13:15;22.08;;;7.35;;
31978;SDS011;18502;43.574;1.276;2022-10-31T09:15:43;19.05;;;6.60;;
31978;SDS011;18502;43.574;1.276;2022-10-31T09:18:11;18.80;;;6.97;;
31978;SDS011;18502;43.574;1.276;2022-10-31T09:20:38;20.92;;;6.20;;
31978;SDS011;18502;43.574;1.276;2022-10-31T09:23:06;21.40;;;6.75;;
31978;SDS011;18502;43.574;1.276;2022-10-31T09:25:34;15.25;;;5.88;;
31978;SDS011;18502;43.574;1.276;2022-10-31T09:28:01;18.95;;;6.88;;
31978;SDS011;18502;43.574;1.276;2022-10-31T09:30:28;14.90;;;6.65;;
31978;SDS011;18502;43.574;1.276;2022-10-31T09:33:00;26.85;;;6.80;;
31978;SDS011;18502;43.574;1.276;2022-10-31T09:35:27;17.27;;;6.88;;
31978;SDS011;18502;43.574;1.276;2022-10-31T09:38:00;16.75;;;5.65;;
31978;SDS011;18502;43.574;1.276;2022-10-31T09:40:32;17.40;;;6.50;;
31978;SDS011;18502;43.574;1.276;2022-10-31T09:43:14;15.73;;;6.75;;
31978;SDS011;18502;43.574;1.276;2022-10-31T09:45:49;24.42;;;6.78;;
31978;SDS011;18502;43.574;1.276;2022-10-31T09:48:21;14.98;;;6.07;;
31978;SDS011;18502;43.574;1.276;2022-10-31T09:51:00;16.88;;;6.78;;
31978;SDS011;18502;43.574;1.276;2022-10-31T09:55:57;17.77;;;6.25;;
31978;SDS011;18502;43.574;1.276;2022-10-31T09:58:25;16.48;;;5.28;;
31978;SDS011;18502;43.574;1.276;2022-10-31T10:00:53;18.55;;;6.00;;
31978;SDS011;18502;43.574;1.276;2022-10-31T10:06:01;17.00;;;5.32;;
31978;SDS011;18502;43.574;1.276;2022-10-31T10:08:43;15.30;;;5.07;;
31978;SDS011;18502;43.574;1.276;2022-10-31T10:17:32;15.23;;;5.85;;
31978;SDS011;18502;43.574;1.276;2022-10-31T10:20:13;14.25;;;6.03;;
31978;SDS011;18502;43.574;1.276;2022-10-31T10:26:05;17.40;;;5.28;;
31978;SDS011;18502;43.574;1.276;2022-10-31T10:28:41;20.25;;;5.28;;
31978;SDS011;18502;43.574;1.276;2022-10-31T10:31:20;19.92;;;5.53;;
31978;SDS011;18502;43.574;1.276;2022-10-31T10:36:48;16.05;;;4.78;;
31978;SDS011;18502;43.574;1.276;2022-10-31T10:39:24;10.95;;;4.20;;
31978;SDS011;18502;43.574;1.276;2022-10-31T10:41:54;16.83;;;4.55;;
31978;SDS011;18502;43.574;1.276;2022-10-31T10:44:43;13.13;;;5.05;;
31978;SDS011;18502;43.574;1.276;2022-10-31T10:50:16;20.73;;;6.50;;
31978;SDS011;18502;43.574;1.276;2022-10-31T10:52:53;14.30;;;3.92;;
31978;SDS011;18502;43.574;1.276;2022-10-31T10:55:47;15.13;;;5.22;;
31978;SDS011;18502;43.574;1.276;2022-10-31T10:58:23;10.52;;;3.92;;
31978;SDS011;18502;43.574;1.276;2022-10-31T11:00:48;21.13;;;5.05;;
31978;SDS011;18502;43.574;1.276;2022-10-31T11:03:16;25.17;;;5.13;;
31978;SDS011;18502;43.574;1.276;2022-10-31T11:05:50;10.32;;;4.63;;
31978;SDS011;18502;43.574;1.276;2022-10-31T11:08:24;11.10;;;4.30;;
31978;SDS011;18502;43.574;1.276;2022-10-31T11:11:02;13.15;;;4.38;;
31978;SDS011;18502;43.574;1.276;2022-10-31T11:13:30;16.52;;;4.85;;
31978;SDS011;18502;43.574;1.276;2022-10-31T11:16:02;17.92;;;4.70;;
31978;SDS011;18502;43.574;1.276;2022-10-31T11:18:32;19.77;;;4.40;;
31978;SDS011;18502;43.574;1.276;2022-10-31T11:21:00;9.65;;;4.10;;
31978;SDS011;18502;43.574;1.276;2022-10-31T11:23:28;15.45;;;5.03;;
31978;SDS011;18502;43.574;1.276;2022-10-31T11:26:01;16.40;;;5.00;;
31978;SDS011;18502;43.574;1.276;2022-10-31T11:28:29;14.10;;;4.28;;
31978;SDS011;18502;43.574;1.276;2022-10-31T11:31:15;18.13;;;5.32;;
31978;SDS011;18502;43.574;1.276;2022-10-31T11:36:16;20.52;;;5.43;;
31978;SDS011;18502;43.574;1.276;2022-10-31T11:38:46;12.18;;;4.75;;
31978;SDS011;18502;43.574;1.276;2022-10-31T11:41:14;9.20;;;3.75;;
31978;SDS011;18502;43.574;1.276;2022-10-31T11:44:12;13.50;;;4.65;;
31978;SDS011;18502;43.574;1.276;2022-10-31T11:46:49;11.32;;;4.20;;
31978;SDS011;18502;43.574;1.276;2022-10-31T11:49:23;20.47;;;4.97;;
31978;SDS011;18502;43.574;1.276;2022-10-31T11:51:57;15.38;;;4.85;;
31978;SDS011;18502;43.574;1.276;2022-10-31T11:54:32;14.93;;;4.55;;
31978;SDS011;18502;43.574;1.276;2022-10-31T11:57:32;11.60;;;3.95;;
31978;SDS011;18502;43.574;1.276;2022-10-31T12:00:19;15.23;;;4.93;;
31978;SDS011;18502;43.574;1.276;2022-10-31T12:02:46;15.05;;;5.20;;
31978;SDS011;18502;43.574;1.276;2022-10-31T12:05:17;14.52;;;5.40;;
31978;SDS011;18502;43.574;1.276;2022-10-31T12:07:45;12.35;;;4.40;;
31978;SDS011;18502;43.574;1.276;2022-10-31T12:10:11;14.65;;;5.18;;
31978;SDS011;18502;43.574;1.276;2022-10-31T12:15:35;11.52;;;4.63;;
31978;SDS011;18502;43.574;1.276;2022-10-31T12:27:10;14.95;;;3.90;;
31978;SDS011;18502;43.574;1.276;2022-10-31T12:29:49;15.23;;;3.65;;
31978;SDS011;18502;43.574;1.276;2022-10-31T12:32:47;16.67;;;4.78;;
31978;SDS011;18502;43.574;1.276;2022-10-31T12:35:36;14.25;;;4.70;;
31978;SDS011;18502;43.574;1.276;2022-10-31T12:47:05;15.55;;;4.60;;
31978;SDS011;18502;43.574;1.276;2022-10-31T12:53:26;17.33;;;4.00;;
31978;SDS011;18502;43.574;1.276;2022-10-31T12:58:06;13.85;;;4.15;;
31978;SDS011;18502;43.574;1.276;2022-10-31T13:00:36;15.30;;;4.57;;
31978;SDS011;18502;43.574;1.276;2022-10-31T13:05:41;12.15;;;4.82;;
31978;SDS011;18502;43.574;1.276;2022-10-31T13:08:21;17.70;;;5.75;;
31978;SDS011;18502;43.574;1.276;2022-10-31T13:13:38;14.80;;;4.95;;
31978;SDS011;18502;43.574;1.276;2022-10-31T13:16:18;15.52;;;5.03;;
31978;SDS011;18502;43.574;1.276;2022-10-31T13:21:41;16.60;;;5.30;;
31978;SDS011;18502;43.574;1.276;2022-10-31T13:24:34;15.60;;;4.38;;
31978;SDS011;18502;43.574;1.276;2022-10-31T13:27:13;18.85;;;5.18;;
31978;SDS011;18502;43.574;1.276;2022-10-31T13:30:06;14.18;;;4.40;;
31978;SDS011;18502;43.574;1.276;2022-10-31T13:32:46;12.55;;;5.07;;
31978;SDS011;18502;43.574;1.276;2022-10-31T13:35:15;12.25;;;5.20;;
31978;SDS011;18502;43.574;1.276;2022-10-31T13:40:36;16.75;;;5.63;;
31978;SDS011;18502;43.574;1.276;2022-10-31T13:45:51;12.35;;;4.85;;
31978;SDS011;18502;43.574;1.276;2022-10-31T13:48:28;18.05;;;5.72;;
31978;SDS011;18502;43.574;1.276;2022-10-31T13:51:09;20.63;;;5.55;;
31978;SDS011;18502;43.574;1.276;2022-10-31T13:53:36;16.45;;;5.32;;
31978;SDS011;18502;43.574;1.276;2022-10-31T13:56:30;16.67;;;4.43;;
31978;SDS011;18502;43.574;1.276;2022-10-31T13:59:04;16.45;;;4.43;;
31978;SDS011;18502;43.574;1.276;2022-10-31T14:01:45;18.67;;;5.47;;
31978;SDS011;18502;43.574;1.276;2022-10-31T14:05:05;12.82;;;4.97;;
31978;SDS011;18502;43.574;1.276;2022-10-31T14:07:18;13.43;;;5.30;;
31978;SDS011;18502;43.574;1.276;2022-10-31T14:12:36;18.67;;;5.18;;
31978;SDS011;18502;43.574;1.276;2022-10-31T14:17:44;22.15;;;5.95;;
31978;SDS011;18502;43.574;1.276;2022-10-31T14:22:45;17.38;;;5.82;;
31978;SDS011;18502;43.574;1.276;2022-10-31T14:25:31;11.93;;;5.55;;
31978;SDS011;18502;43.574;1.276;2022-10-31T14:27:57;17.75;;;6.07;;
31978;SDS011;18502;43.574;1.276;2022-10-31T14:30:25;17.38;;;5.63;;
31978;SDS011;18502;43.574;1.276;2022-10-31T14:32:52;16.20;;;5.20;;
31978;SDS011;18502;43.574;1.276;2022-10-31T14:35:52;14.88;;;5.63;;
31978;SDS011;18502;43.574;1.276;2022-10-31T14:41:55;20.98;;;5.88;;
31978;SDS011;18502;43.574;1.276;2022-10-31T14:52:18;14.57;;;5.22;;
31978;SDS011;18502;43.574;1.276;2022-10-31T14:54:46;18.75;;;5.95;;
31978;SDS011;18502;43.574;1.276;2022-10-31T14:57:31;15.07;;;6.05;;
31978;SDS011;18502;43.574;1.276;2022-10-31T15:00:04;23.35;;;6.53;;
31978;SDS011;18502;43.574;1.276;2022-10-31T15:03:02;18.40;;;6.07;;
31978;SDS011;18502;43.574;1.276;2022-10-31T15:05:31;21.35;;;5.90;;
31978;SDS011;18502;43.574;1.276;2022-10-31T15:07:59;17.58;;;5.30;;
31978;SDS011;18502;43.574;1.276;2022-10-31T15:10:27;20.05;;;5.13;;
31978;SDS011;18502;43.574;1.276;2022-10-31T15:13:10;21.73;;;6.22;;
31978;SDS011;18502;43.574;1.276;2022-10-31T15:15:52;21.50;;;7.07;;
31978;SDS011;18502;43.574;1.276;2022-10-31T15:18:22;13.20;;;4.85;;
31978;SDS011;18502;43.574;1.276;2022-10-31T15:20:50;31.67;;;6.28;;
31978;SDS011;18502;43.574;1.276;2022-10-31T15:23:21;21.27;;;6.57;;
31978;SDS011;18502;43.574;1.276;2022-10-31T15:25:50;15.90;;;5.78;;
31978;SDS011;18502;43.574;1.276;2022-10-31T15:28:20;20.17;;;6.70;;
31978;SDS011;18502;43.574;1.276;2022-10-31T15:30:51;25.70;;;7.15;;
31978;SDS011;18502;43.574;1.276;2022-10-31T15:33:19;22.95;;;5.65;;
31978;SDS011;18502;43.574;1.276;2022-10-31T15:35:54;23.23;;;6.53;;
31978;SDS011;18502;43.574;1.276;2022-10-31T15:38:21;22.05;;;6.40;;
31978;SDS011;18502;43.574;1.276;2022-10-31T15:40:52;16.08;;;5.68;;
31978;SDS011;18502;43.574;1.276;2022-10-31T15:43:32;17.83;;;6.63;;
31978;SDS011;18502;43.574;1.276;2022-10-31T15:46:00;17.15;;;6.35;;
31978;SDS011;18502;43.574;1.276;2022-10-31T15:48:27;19.90;;;5.72;;
31978;SDS011;18502;43.574;1.276;2022-10-31T15:50:56;18.42;;;5.28;;
31978;SDS011;18502;43.574;1.276;2022-10-31T15:53:33;17.90;;;6.00;;
31978;SDS011;18502;43.574;1.276;2022-10-31T15:56:07;21.67;;;5.80;;
31978;SDS011;18502;43.574;1.276;2022-10-31T15:58:41;14.95;;;5.80;;
31978;SDS011;18502;43.574;1.276;2022-10-31T16:01:20;13.68;;;5.72;;
31978;SDS011;18502;43.574;1.276;2022-10-31T16:03:56;17.98;;;7.53;;
31978;SDS011;18502;43.574;1.276;2022-10-31T16:06:24;17.85;;;6.68;;
31978;SDS011;18502;43.574;1.276;2022-10-31T16:08:50;22.35;;;5.95;;
31978;SDS011;18502;43.574;1.276;2022-10-31T16:11:23;18.67;;;5.28;;
31978;SDS011;18502;43.574;1.276;2022-10-31T16:13:57;17.50;;;6.33;;
31978;SDS011;18502;43.574;1.276;2022-10-31T16:16:25;23.42;;;6.35;;
31978;SDS011;18502;43.574;1.276;2022-10-31T16:18:52;20.58;;;6.65;;
31978;SDS011;18502;43.574;1.276;2022-10-31T16:21:27;30.25;;;6.43;;
31978;SDS011;18502;43.574;1.276;2022-10-31T16:23:57;29.20;;;6.97;;
31978;SDS011;18502;43.574;1.276;2022-10-31T16:26:29;17.20;;;5.68;;
31978;SDS011;18502;43.574;1.276;2022-10-31T16:28:57;17.48;;;5.50;;
31978;SDS011;18502;43.574;1.276;2022-10-31T16:31:56;17.45;;;5.50;;
31978;SDS011;18502;43.574;1.276;2022-10-31T16:34:21;23.42;;;6.13;;
31978;SDS011;18502;43.574;1.276;2022-10-31T16:36:48;19.75;;;6.43;;
31978;SDS011;18502;43.574;1.276;2022-10-31T16:39:13;17.55;;;5.78;;
31978;SDS011;18502;43.574;1.276;2022-10-31T16:41:49;21.23;;;6.10;;
31978;SDS011;18502;43.574;1.276;2022-10-31T16:44:26;20.60;;;6.05;;
31978;SDS011;18502;43.574;1.276;2022-10-31T16:47:34;20.50;;;6.60;;
31978;SDS011;18502;43.574;1.276;2022-10-31T16:49:42;22.73;;;6.55;;
31978;SDS011;18502;43.574;1.276;2022-10-31T16:52:08;24.05;;;6.47;;
31978;SDS011;18502;43.574;1.276;2022-10-31T16:54:34;21.92;;;6.18;;
31978;SDS011;18502;43.574;1.276;2022-10-31T16:57:01;25.58;;;6.07;;
31978;SDS011;18502;43.574;1.276;2022-10-31T16:59:28;20.25;;;6.38;;
31978;SDS011;18502;43.574;1.276;2022-10-31T17:01:54;30.73;;;7.45;;